sensor_id;sensor_type;location;lat;lon;timestamp;P1;durP1;ratioP1;P2;durP2;ratioP2
14100;SDS011;7127;49.372;8.166;2023-02-28T00:00:49;1.47;;;0.87;;
14100;SDS011;7127;49.372;8.166;2023-02-28T00:03:16;1.33;;;1.00;;
14100;SDS011;7127;49.372;8.166;2023-02-28T00:05:43;0.83;;;0.80;;
14100;SDS011;7127;49.372;8.166;2023-02-28T00:08:10;2.60;;;1.00;;
14100;SDS011;7127;49.372;8.166;2023-02-28T00:10:40;0.73;;;0.73;;
14100;SDS011;7127;49.372;8.166;2023-02-28T00:13:06;0.50;;;0.50;;
14100;SDS011;7127;49.372;8.166;2023-02-28T00:15:34;1.73;;;0.80;;
14100;SDS011;7127;49.372;8.166;2023-02-28T00:18:01;0.93;;;0.90;;
14100;SDS011;7127;49.372;8.166;2023-02-28T00:20:28;1.03;;;0.90;;
14100;SDS011;7127;49.372;8.166;2023-02-28T00:22:55;1.30;;;0.90;;
14100;SDS011;7127;49.372;8.166;2023-02-28T00:25:23;1.50;;;0.90;;
14100;SDS011;7127;49.372;8.166;2023-02-28T00:27:52;1.23;;;0.90;;
14100;SDS011;7127;49.372;8.166;2023-02-28T00:30:20;0.73;;;0.70;;
14100;SDS011;7127;49.372;8.166;2023-02-28T00:32:48;1.40;;;0.90;;
14100;SDS011;7127;49.372;8.166;2023-02-28T00:35:16;0.90;;;0.77;;
14100;SDS011;7127;49.372;8.166;2023-02-28T00:37:44;1.20;;;0.87;;
14100;SDS011;7127;49.372;8.166;2023-02-28T00:40:10;1.27;;;0.80;;
14100;SDS011;7127;49.372;8.166;2023-02-28T00:42:38;1.33;;;1.00;;
14100;SDS011;7127;49.372;8.166;2023-02-28T00:45:07;1.00;;;0.90;;
14100;SDS011;7127;49.372;8.166;2023-02-28T00:47:34;1.00;;;0.90;;
14100;SDS011;7127;49.372;8.166;2023-02-28T00:50:01;1.20;;;0.87;;
14100;SDS011;7127;49.372;8.166;2023-02-28T00:52:29;1.50;;;1.00;;
14100;SDS011;7127;49.372;8.166;2023-02-28T00:54:56;0.97;;;0.80;;
14100;SDS011;7127;49.372;8.166;2023-02-28T00:57:23;1.23;;;0.90;;
14100;SDS011;7127;49.372;8.166;2023-02-28T00:59:50;1.50;;;1.13;;
14100;SDS011;7127;49.372;8.166;2023-02-28T01:02:20;1.73;;;1.00;;
14100;SDS011;7127;49.372;8.166;2023-02-28T01:04:48;1.00;;;0.90;;
14100;SDS011;7127;49.372;8.166;2023-02-28T01:07:15;1.40;;;0.90;;
14100;SDS011;7127;49.372;8.166;2023-02-28T01:09:41;0.90;;;0.90;;
14100;SDS011;7127;49.372;8.166;2023-02-28T01:12:08;1.40;;;1.10;;
14100;SDS011;7127;49.372;8.166;2023-02-28T01:14:36;1.17;;;1.00;;
14100;SDS011;7127;49.372;8.166;2023-02-28T01:17:03;0.87;;;0.83;;
14100;SDS011;7127;49.372;8.166;2023-02-28T01:19:31;1.10;;;0.90;;
14100;SDS011;7127;49.372;8.166;2023-02-28T01:22:00;1.43;;;1.00;;
14100;SDS011;7127;49.372;8.166;2023-02-28T01:24:27;1.77;;;1.20;;
14100;SDS011;7127;49.372;8.166;2023-02-28T01:26:54;1.10;;;1.00;;
14100;SDS011;7127;49.372;8.166;2023-02-28T01:29:21;1.50;;;1.20;;
14100;SDS011;7127;49.372;8.166;2023-02-28T01:31:47;1.53;;;0.97;;
14100;SDS011;7127;49.372;8.166;2023-02-28T01:34:14;1.10;;;1.00;;
14100;SDS011;7127;49.372;8.166;2023-02-28T01:36:42;1.33;;;0.93;;
14100;SDS011;7127;49.372;8.166;2023-02-28T01:39:09;1.47;;;1.10;;
14100;SDS011;7127;49.372;8.166;2023-02-28T01:41:37;1.27;;;1.10;;
14100;SDS011;7127;49.372;8.166;2023-02-28T01:44:05;1.27;;;1.17;;
14100;SDS011;7127;49.372;8.166;2023-02-28T01:46:34;0.90;;;0.90;;
14100;SDS011;7127;49.372;8.166;2023-02-28T01:49:03;1.40;;;1.10;;
14100;SDS011;7127;49.372;8.166;2023-02-28T01:51:38;5.30;;;1.63;;
14100;SDS011;7127;49.372;8.166;2023-02-28T01:54:12;1.30;;;1.00;;
14100;SDS011;7127;49.372;8.166;2023-02-28T01:56:43;0.87;;;0.77;;
14100;SDS011;7127;49.372;8.166;2023-02-28T01:59:12;1.20;;;1.10;;
14100;SDS011;7127;49.372;8.166;2023-02-28T02:01:45;1.57;;;1.23;;
14100;SDS011;7127;49.372;8.166;2023-02-28T02:04:12;1.50;;;1.20;;
14100;SDS011;7127;49.372;8.166;2023-02-28T02:06:40;1.23;;;1.03;;
14100;SDS011;7127;49.372;8.166;2023-02-28T02:09:12;1.70;;;1.10;;
14100;SDS011;7127;49.372;8.166;2023-02-28T02:11:39;1.53;;;1.10;;
14100;SDS011;7127;49.372;8.166;2023-02-28T02:17:04;1.13;;;1.03;;
14100;SDS011;7127;49.372;8.166;2023-02-28T02:19:50;2.03;;;1.30;;
14100;SDS011;7127;49.372;8.166;2023-02-28T02:22:40;3.27;;;1.23;;
14100;SDS011;7127;49.372;8.166;2023-02-28T02:25:30;1.47;;;1.33;;
14100;SDS011;7127;49.372;8.166;2023-02-28T02:28:13;1.67;;;0.90;;
14100;SDS011;7127;49.372;8.166;2023-02-28T02:30:58;1.33;;;1.20;;
14100;SDS011;7127;49.372;8.166;2023-02-28T02:34:02;1.30;;;1.20;;
14100;SDS011;7127;49.372;8.166;2023-02-28T02:36:44;1.47;;;1.20;;
14100;SDS011;7127;49.372;8.166;2023-02-28T02:39:17;1.30;;;1.20;;
14100;SDS011;7127;49.372;8.166;2023-02-28T02:41:51;1.27;;;1.00;;
14100;SDS011;7127;49.372;8.166;2023-02-28T02:44:20;1.67;;;1.20;;
14100;SDS011;7127;49.372;8.166;2023-02-28T02:46:50;1.70;;;1.30;;
14100;SDS011;7127;49.372;8.166;2023-02-28T02:49:23;1.37;;;1.10;;
14100;SDS011;7127;49.372;8.166;2023-02-28T02:51:52;1.37;;;1.13;;
14100;SDS011;7127;49.372;8.166;2023-02-28T02:54:22;1.87;;;1.27;;
14100;SDS011;7127;49.372;8.166;2023-02-28T02:56:53;1.60;;;1.50;;
14100;SDS011;7127;49.372;8.166;2023-02-28T02:59:23;1.40;;;1.27;;
14100;SDS011;7127;49.372;8.166;2023-02-28T03:01:55;1.80;;;1.43;;
14100;SDS011;7127;49.372;8.166;2023-02-28T03:04:26;1.67;;;1.10;;
14100;SDS011;7127;49.372;8.166;2023-02-28T03:06:57;1.40;;;1.27;;
14100;SDS011;7127;49.372;8.166;2023-02-28T03:09:24;1.40;;;1.30;;
14100;SDS011;7127;49.372;8.166;2023-02-28T03:11:52;2.27;;;1.40;;
14100;SDS011;7127;49.372;8.166;2023-02-28T03:14:25;1.67;;;1.30;;
14100;SDS011;7127;49.372;8.166;2023-02-28T03:17:12;1.57;;;1.20;;
14100;SDS011;7127;49.372;8.166;2023-02-28T03:19:54;1.70;;;1.40;;
14100;SDS011;7127;49.372;8.166;2023-02-28T03:22:41;1.90;;;1.40;;
14100;SDS011;7127;49.372;8.166;2023-02-28T03:25:20;1.40;;;1.20;;
14100;SDS011;7127;49.372;8.166;2023-02-28T03:27:59;1.90;;;1.60;;
14100;SDS011;7127;49.372;8.166;2023-02-28T03:30:31;2.13;;;1.33;;
14100;SDS011;7127;49.372;8.166;2023-02-28T03:33:03;2.17;;;1.60;;
14100;SDS011;7127;49.372;8.166;2023-02-28T03:35:36;2.20;;;1.20;;
14100;SDS011;7127;49.372;8.166;2023-02-28T03:38:07;1.40;;;1.30;;
14100;SDS011;7127;49.372;8.166;2023-02-28T03:40:39;2.23;;;1.13;;
14100;SDS011;7127;49.372;8.166;2023-02-28T03:43:12;1.43;;;1.30;;
14100;SDS011;7127;49.372;8.166;2023-02-28T03:45:43;1.40;;;1.13;;
14100;SDS011;7127;49.372;8.166;2023-02-28T03:48:13;1.50;;;1.30;;
14100;SDS011;7127;49.372;8.166;2023-02-28T03:50:47;1.87;;;0.97;;
14100;SDS011;7127;49.372;8.166;2023-02-28T03:53:18;2.23;;;1.17;;
14100;SDS011;7127;49.372;8.166;2023-02-28T03:55:50;1.30;;;1.20;;
14100;SDS011;7127;49.372;8.166;2023-02-28T03:58:25;1.43;;;1.10;;
14100;SDS011;7127;49.372;8.166;2023-02-28T04:00:59;2.10;;;1.50;;
14100;SDS011;7127;49.372;8.166;2023-02-28T04:03:33;1.40;;;1.30;;
14100;SDS011;7127;49.372;8.166;2023-02-28T04:06:02;1.87;;;1.40;;
14100;SDS011;7127;49.372;8.166;2023-02-28T04:08:30;1.50;;;1.33;;
14100;SDS011;7127;49.372;8.166;2023-02-28T04:10:58;2.53;;;1.40;;
14100;SDS011;7127;49.372;8.166;2023-02-28T04:13:29;1.30;;;1.20;;
14100;SDS011;7127;49.372;8.166;2023-02-28T04:15:56;1.77;;;1.37;;
14100;SDS011;7127;49.372;8.166;2023-02-28T04:18:23;1.67;;;1.17;;
14100;SDS011;7127;49.372;8.166;2023-02-28T04:20:50;1.43;;;1.33;;
14100;SDS011;7127;49.372;8.166;2023-02-28T04:23:18;2.07;;;1.43;;
14100;SDS011;7127;49.372;8.166;2023-02-28T04:25:45;1.47;;;1.27;;
14100;SDS011;7127;49.372;8.166;2023-02-28T04:28:12;1.50;;;1.27;;
14100;SDS011;7127;49.372;8.166;2023-02-28T04:30:39;2.23;;;1.40;;
14100;SDS011;7127;49.372;8.166;2023-02-28T04:33:06;1.63;;;1.43;;
14100;SDS011;7127;49.372;8.166;2023-02-28T04:35:33;2.60;;;1.40;;
14100;SDS011;7127;49.372;8.166;2023-02-28T04:38:00;1.47;;;1.37;;
14100;SDS011;7127;49.372;8.166;2023-02-28T04:40:28;2.10;;;1.70;;
14100;SDS011;7127;49.372;8.166;2023-02-28T04:42:55;1.60;;;1.50;;
14100;SDS011;7127;49.372;8.166;2023-02-28T04:45:22;1.20;;;1.10;;
14100;SDS011;7127;49.372;8.166;2023-02-28T04:47:49;1.63;;;1.20;;
14100;SDS011;7127;49.372;8.166;2023-02-28T04:50:15;1.83;;;1.20;;
14100;SDS011;7127;49.372;8.166;2023-02-28T04:52:42;1.30;;;1.20;;
14100;SDS011;7127;49.372;8.166;2023-02-28T04:55:09;2.53;;;1.40;;
14100;SDS011;7127;49.372;8.166;2023-02-28T04:57:38;1.57;;;1.40;;
14100;SDS011;7127;49.372;8.166;2023-02-28T05:00:05;2.33;;;1.40;;
14100;SDS011;7127;49.372;8.166;2023-02-28T05:02:36;3.33;;;1.60;;
14100;SDS011;7127;49.372;8.166;2023-02-28T05:05:03;1.37;;;1.27;;
14100;SDS011;7127;49.372;8.166;2023-02-28T05:07:30;1.70;;;1.50;;
14100;SDS011;7127;49.372;8.166;2023-02-28T05:09:57;1.60;;;1.40;;
14100;SDS011;7127;49.372;8.166;2023-02-28T05:12:24;2.53;;;1.50;;
14100;SDS011;7127;49.372;8.166;2023-02-28T05:14:52;1.50;;;1.20;;
14100;SDS011;7127;49.372;8.166;2023-02-28T05:17:19;2.00;;;1.70;;
14100;SDS011;7127;49.372;8.166;2023-02-28T05:19:46;2.77;;;1.60;;
14100;SDS011;7127;49.372;8.166;2023-02-28T05:22:13;3.17;;;1.40;;
14100;SDS011;7127;49.372;8.166;2023-02-28T05:24:41;2.33;;;1.80;;
14100;SDS011;7127;49.372;8.166;2023-02-28T05:27:09;1.70;;;1.40;;
14100;SDS011;7127;49.372;8.166;2023-02-28T05:29:36;1.87;;;1.60;;
14100;SDS011;7127;49.372;8.166;2023-02-28T05:32:08;1.87;;;1.67;;
14100;SDS011;7127;49.372;8.166;2023-02-28T05:34:36;1.50;;;1.40;;
14100;SDS011;7127;49.372;8.166;2023-02-28T05:37:03;1.70;;;1.30;;
14100;SDS011;7127;49.372;8.166;2023-02-28T05:39:30;1.80;;;1.50;;
14100;SDS011;7127;49.372;8.166;2023-02-28T05:41:57;1.40;;;1.23;;
14100;SDS011;7127;49.372;8.166;2023-02-28T05:44:24;1.90;;;1.70;;
14100;SDS011;7127;49.372;8.166;2023-02-28T05:46:51;1.70;;;1.50;;
14100;SDS011;7127;49.372;8.166;2023-02-28T05:49:19;2.13;;;1.80;;
14100;SDS011;7127;49.372;8.166;2023-02-28T05:51:45;2.63;;;1.80;;
14100;SDS011;7127;49.372;8.166;2023-02-28T05:54:12;2.40;;;1.57;;
14100;SDS011;7127;49.372;8.166;2023-02-28T05:56:39;2.37;;;1.97;;
14100;SDS011;7127;49.372;8.166;2023-02-28T05:59:09;2.20;;;1.80;;
14100;SDS011;7127;49.372;8.166;2023-02-28T06:01:37;2.23;;;1.73;;
14100;SDS011;7127;49.372;8.166;2023-02-28T06:04:06;2.40;;;2.00;;
14100;SDS011;7127;49.372;8.166;2023-02-28T06:06:37;2.03;;;1.73;;
14100;SDS011;7127;49.372;8.166;2023-02-28T06:09:04;2.50;;;1.60;;
14100;SDS011;7127;49.372;8.166;2023-02-28T06:11:31;2.33;;;1.93;;
14100;SDS011;7127;49.372;8.166;2023-02-28T06:13:59;1.83;;;1.70;;
14100;SDS011;7127;49.372;8.166;2023-02-28T06:16:27;2.00;;;1.57;;
14100;SDS011;7127;49.372;8.166;2023-02-28T06:18:56;2.27;;;1.87;;
14100;SDS011;7127;49.372;8.166;2023-02-28T06:21:24;2.07;;;1.83;;
14100;SDS011;7127;49.372;8.166;2023-02-28T06:23:53;2.00;;;1.80;;
14100;SDS011;7127;49.372;8.166;2023-02-28T06:26:21;2.03;;;1.87;;
14100;SDS011;7127;49.372;8.166;2023-02-28T06:28:48;2.37;;;1.60;;
14100;SDS011;7127;49.372;8.166;2023-02-28T06:31:15;1.90;;;1.73;;
14100;SDS011;7127;49.372;8.166;2023-02-28T06:33:44;2.70;;;2.27;;
14100;SDS011;7127;49.372;8.166;2023-02-28T06:36:12;3.13;;;1.70;;
14100;SDS011;7127;49.372;8.166;2023-02-28T06:38:41;1.80;;;1.70;;
14100;SDS011;7127;49.372;8.166;2023-02-28T06:41:10;2.03;;;1.73;;
14100;SDS011;7127;49.372;8.166;2023-02-28T06:43:38;2.10;;;1.80;;
14100;SDS011;7127;49.372;8.166;2023-02-28T06:46:07;2.77;;;1.93;;
14100;SDS011;7127;49.372;8.166;2023-02-28T06:48:38;4.00;;;1.97;;
14100;SDS011;7127;49.372;8.166;2023-02-28T06:51:05;1.93;;;1.70;;
14100;SDS011;7127;49.372;8.166;2023-02-28T06:53:34;2.30;;;2.10;;
14100;SDS011;7127;49.372;8.166;2023-02-28T06:56:03;3.17;;;2.20;;
14100;SDS011;7127;49.372;8.166;2023-02-28T06:58:33;2.30;;;2.10;;
14100;SDS011;7127;49.372;8.166;2023-02-28T07:01:00;2.20;;;2.00;;
14100;SDS011;7127;49.372;8.166;2023-02-28T07:03:27;3.70;;;2.30;;
14100;SDS011;7127;49.372;8.166;2023-02-28T07:05:54;2.03;;;1.60;;
14100;SDS011;7127;49.372;8.166;2023-02-28T07:08:22;2.73;;;2.00;;
14100;SDS011;7127;49.372;8.166;2023-02-28T07:10:51;2.83;;;2.20;;
14100;SDS011;7127;49.372;8.166;2023-02-28T07:13:19;3.77;;;2.10;;
14100;SDS011;7127;49.372;8.166;2023-02-28T07:15:53;3.00;;;2.30;;
14100;SDS011;7127;49.372;8.166;2023-02-28T07:18:20;2.60;;;1.90;;
14100;SDS011;7127;49.372;8.166;2023-02-28T07:20:47;2.00;;;1.80;;
14100;SDS011;7127;49.372;8.166;2023-02-28T07:23:14;2.03;;;1.80;;
14100;SDS011;7127;49.372;8.166;2023-02-28T07:25:41;2.50;;;2.10;;
14100;SDS011;7127;49.372;8.166;2023-02-28T07:28:08;2.60;;;1.90;;
14100;SDS011;7127;49.372;8.166;2023-02-28T07:30:35;2.60;;;2.20;;
14100;SDS011;7127;49.372;8.166;2023-02-28T07:33:04;2.23;;;1.90;;
14100;SDS011;7127;49.372;8.166;2023-02-28T07:35:30;2.10;;;1.90;;
14100;SDS011;7127;49.372;8.166;2023-02-28T07:37:58;2.27;;;1.93;;
14100;SDS011;7127;49.372;8.166;2023-02-28T07:40:25;2.87;;;2.10;;
14100;SDS011;7127;49.372;8.166;2023-02-28T07:42:52;2.37;;;2.17;;
14100;SDS011;7127;49.372;8.166;2023-02-28T07:45:19;3.90;;;2.47;;
14100;SDS011;7127;49.372;8.166;2023-02-28T07:47:46;3.20;;;1.77;;
14100;SDS011;7127;49.372;8.166;2023-02-28T07:50:14;2.30;;;1.93;;
14100;SDS011;7127;49.372;8.166;2023-02-28T07:52:42;1.90;;;1.70;;
14100;SDS011;7127;49.372;8.166;2023-02-28T07:55:09;3.60;;;1.90;;
14100;SDS011;7127;49.372;8.166;2023-02-28T07:57:37;2.50;;;1.97;;
14100;SDS011;7127;49.372;8.166;2023-02-28T08:00:04;2.63;;;2.23;;
14100;SDS011;7127;49.372;8.166;2023-02-28T08:02:34;2.57;;;2.03;;
14100;SDS011;7127;49.372;8.166;2023-02-28T08:05:01;3.57;;;2.53;;
14100;SDS011;7127;49.372;8.166;2023-02-28T08:07:30;3.87;;;2.50;;
14100;SDS011;7127;49.372;8.166;2023-02-28T08:09:57;2.57;;;2.23;;
14100;SDS011;7127;49.372;8.166;2023-02-28T08:12:24;2.67;;;2.27;;
14100;SDS011;7127;49.372;8.166;2023-02-28T08:14:51;2.50;;;2.30;;
14100;SDS011;7127;49.372;8.166;2023-02-28T08:17:18;2.40;;;2.00;;
14100;SDS011;7127;49.372;8.166;2023-02-28T08:19:45;2.17;;;1.90;;
14100;SDS011;7127;49.372;8.166;2023-02-28T08:22:12;3.23;;;2.30;;
14100;SDS011;7127;49.372;8.166;2023-02-28T08:24:42;3.13;;;2.40;;
14100;SDS011;7127;49.372;8.166;2023-02-28T08:27:09;2.20;;;2.00;;
14100;SDS011;7127;49.372;8.166;2023-02-28T08:29:36;2.60;;;2.13;;
14100;SDS011;7127;49.372;8.166;2023-02-28T08:32:04;2.23;;;1.83;;
14100;SDS011;7127;49.372;8.166;2023-02-28T08:34:31;3.20;;;2.00;;
14100;SDS011;7127;49.372;8.166;2023-02-28T08:36:58;2.37;;;1.90;;
14100;SDS011;7127;49.372;8.166;2023-02-28T08:39:25;2.97;;;2.00;;
14100;SDS011;7127;49.372;8.166;2023-02-28T08:41:53;1.80;;;1.70;;
14100;SDS011;7127;49.372;8.166;2023-02-28T08:44:20;2.43;;;1.90;;
14100;SDS011;7127;49.372;8.166;2023-02-28T08:46:47;2.20;;;2.00;;
14100;SDS011;7127;49.372;8.166;2023-02-28T08:49:14;2.07;;;1.77;;
14100;SDS011;7127;49.372;8.166;2023-02-28T08:51:41;1.93;;;1.70;;
14100;SDS011;7127;49.372;8.166;2023-02-28T08:54:08;3.43;;;2.43;;
14100;SDS011;7127;49.372;8.166;2023-02-28T08:56:37;2.20;;;1.80;;
14100;SDS011;7127;49.372;8.166;2023-02-28T08:59:08;1.80;;;1.60;;
14100;SDS011;7127;49.372;8.166;2023-02-28T09:01:35;1.90;;;1.70;;
14100;SDS011;7127;49.372;8.166;2023-02-28T09:04:02;2.60;;;1.80;;
14100;SDS011;7127;49.372;8.166;2023-02-28T09:06:29;4.17;;;2.57;;
14100;SDS011;7127;49.372;8.166;2023-02-28T09:08:58;3.03;;;2.20;;
14100;SDS011;7127;49.372;8.166;2023-02-28T09:11:26;2.60;;;2.20;;
14100;SDS011;7127;49.372;8.166;2023-02-28T09:13:53;3.00;;;2.20;;
14100;SDS011;7127;49.372;8.166;2023-02-28T09:16:22;3.13;;;2.60;;
14100;SDS011;7127;49.372;8.166;2023-02-28T09:18:49;4.13;;;2.70;;
14100;SDS011;7127;49.372;8.166;2023-02-28T09:21:17;3.37;;;2.67;;
14100;SDS011;7127;49.372;8.166;2023-02-28T09:23:45;3.10;;;2.80;;
14100;SDS011;7127;49.372;8.166;2023-02-28T09:26:14;4.20;;;2.77;;
14100;SDS011;7127;49.372;8.166;2023-02-28T09:28:42;3.50;;;2.93;;
14100;SDS011;7127;49.372;8.166;2023-02-28T09:31:12;3.37;;;2.70;;
14100;SDS011;7127;49.372;8.166;2023-02-28T09:33:42;3.30;;;2.63;;
14100;SDS011;7127;49.372;8.166;2023-02-28T09:36:09;2.67;;;2.27;;
14100;SDS011;7127;49.372;8.166;2023-02-28T09:38:35;4.73;;;3.03;;
14100;SDS011;7127;49.372;8.166;2023-02-28T09:41:03;5.10;;;3.13;;
14100;SDS011;7127;49.372;8.166;2023-02-28T09:43:37;3.20;;;2.83;;
14100;SDS011;7127;49.372;8.166;2023-02-28T09:46:08;3.67;;;2.90;;
14100;SDS011;7127;49.372;8.166;2023-02-28T09:48:52;3.23;;;2.63;;
14100;SDS011;7127;49.372;8.166;2023-02-28T09:51:44;2.43;;;2.23;;
14100;SDS011;7127;49.372;8.166;2023-02-28T09:54:28;3.07;;;2.77;;
14100;SDS011;7127;49.372;8.166;2023-02-28T09:56:58;3.23;;;2.80;;
14100;SDS011;7127;49.372;8.166;2023-02-28T09:59:39;3.10;;;2.57;;
14100;SDS011;7127;49.372;8.166;2023-02-28T10:02:19;2.73;;;2.47;;
14100;SDS011;7127;49.372;8.166;2023-02-28T10:05:01;3.30;;;2.40;;
14100;SDS011;7127;49.372;8.166;2023-02-28T10:07:41;3.07;;;2.33;;
14100;SDS011;7127;49.372;8.166;2023-02-28T10:10:24;2.80;;;2.50;;
14100;SDS011;7127;49.372;8.166;2023-02-28T10:12:55;3.57;;;2.80;;
14100;SDS011;7127;49.372;8.166;2023-02-28T10:15:25;3.10;;;2.70;;
14100;SDS011;7127;49.372;8.166;2023-02-28T10:17:57;4.60;;;2.50;;
14100;SDS011;7127;49.372;8.166;2023-02-28T10:20:30;3.33;;;2.50;;
14100;SDS011;7127;49.372;8.166;2023-02-28T10:23:02;3.03;;;2.63;;
14100;SDS011;7127;49.372;8.166;2023-02-28T10:25:36;3.43;;;2.60;;
14100;SDS011;7127;49.372;8.166;2023-02-28T10:28:11;4.03;;;2.57;;
14100;SDS011;7127;49.372;8.166;2023-02-28T10:30:40;2.67;;;2.40;;
14100;SDS011;7127;49.372;8.166;2023-02-28T10:33:14;3.60;;;2.50;;
14100;SDS011;7127;49.372;8.166;2023-02-28T10:35:46;3.43;;;2.60;;
14100;SDS011;7127;49.372;8.166;2023-02-28T10:38:18;2.73;;;2.37;;
14100;SDS011;7127;49.372;8.166;2023-02-28T10:40:46;2.90;;;2.57;;
14100;SDS011;7127;49.372;8.166;2023-02-28T10:43:22;3.77;;;2.50;;
14100;SDS011;7127;49.372;8.166;2023-02-28T10:48:57;2.73;;;2.50;;
14100;SDS011;7127;49.372;8.166;2023-02-28T10:51:32;4.57;;;3.20;;
14100;SDS011;7127;49.372;8.166;2023-02-28T10:54:02;5.37;;;2.73;;
14100;SDS011;7127;49.372;8.166;2023-02-28T10:56:30;3.40;;;2.80;;
14100;SDS011;7127;49.372;8.166;2023-02-28T10:58:58;3.03;;;2.60;;
14100;SDS011;7127;49.372;8.166;2023-02-28T11:01:34;3.00;;;2.70;;
14100;SDS011;7127;49.372;8.166;2023-02-28T11:04:03;2.60;;;2.40;;
14100;SDS011;7127;49.372;8.166;2023-02-28T11:06:43;3.30;;;2.70;;
14100;SDS011;7127;49.372;8.166;2023-02-28T11:09:15;3.80;;;2.70;;
14100;SDS011;7127;49.372;8.166;2023-02-28T11:11:48;3.67;;;2.83;;
14100;SDS011;7127;49.372;8.166;2023-02-28T11:14:17;3.13;;;2.83;;
14100;SDS011;7127;49.372;8.166;2023-02-28T11:16:46;3.87;;;3.07;;
14100;SDS011;7127;49.372;8.166;2023-02-28T11:19:17;3.10;;;2.50;;
14100;SDS011;7127;49.372;8.166;2023-02-28T11:21:50;3.53;;;2.97;;
14100;SDS011;7127;49.372;8.166;2023-02-28T11:24:22;2.80;;;2.50;;
14100;SDS011;7127;49.372;8.166;2023-02-28T11:27:11;2.43;;;2.23;;
14100;SDS011;7127;49.372;8.166;2023-02-28T11:29:51;2.90;;;2.60;;
14100;SDS011;7127;49.372;8.166;2023-02-28T11:32:18;2.97;;;2.67;;
14100;SDS011;7127;49.372;8.166;2023-02-28T11:34:59;3.13;;;2.77;;
14100;SDS011;7127;49.372;8.166;2023-02-28T11:37:29;3.20;;;2.90;;
14100;SDS011;7127;49.372;8.166;2023-02-28T11:39:58;2.87;;;2.57;;
14100;SDS011;7127;49.372;8.166;2023-02-28T11:42:33;3.00;;;2.60;;
14100;SDS011;7127;49.372;8.166;2023-02-28T11:45:12;3.27;;;2.67;;
14100;SDS011;7127;49.372;8.166;2023-02-28T11:47:48;3.30;;;2.90;;
14100;SDS011;7127;49.372;8.166;2023-02-28T11:50:27;2.93;;;2.70;;
14100;SDS011;7127;49.372;8.166;2023-02-28T11:53:14;2.50;;;2.30;;
14100;SDS011;7127;49.372;8.166;2023-02-28T11:55:48;3.93;;;2.67;;
14100;SDS011;7127;49.372;8.166;2023-02-28T11:58:23;3.30;;;3.00;;
14100;SDS011;7127;49.372;8.166;2023-02-28T12:01:06;3.40;;;3.10;;
14100;SDS011;7127;49.372;8.166;2023-02-28T12:03:43;3.40;;;3.10;;
14100;SDS011;7127;49.372;8.166;2023-02-28T12:06:18;3.30;;;3.00;;
14100;SDS011;7127;49.372;8.166;2023-02-28T12:11:41;4.27;;;2.90;;
14100;SDS011;7127;49.372;8.166;2023-02-28T12:14:20;2.67;;;2.47;;
14100;SDS011;7127;49.372;8.166;2023-02-28T12:17:16;3.93;;;3.03;;
14100;SDS011;7127;49.372;8.166;2023-02-28T12:19:55;3.23;;;2.60;;
14100;SDS011;7127;49.372;8.166;2023-02-28T12:22:30;3.10;;;2.80;;
14100;SDS011;7127;49.372;8.166;2023-02-28T12:25:06;3.73;;;2.90;;
14100;SDS011;7127;49.372;8.166;2023-02-28T12:27:48;3.00;;;2.57;;
14100;SDS011;7127;49.372;8.166;2023-02-28T12:30:19;4.37;;;2.80;;
14100;SDS011;7127;49.372;8.166;2023-02-28T12:32:51;3.37;;;2.93;;
14100;SDS011;7127;49.372;8.166;2023-02-28T12:35:22;3.03;;;2.73;;
14100;SDS011;7127;49.372;8.166;2023-02-28T12:37:54;3.43;;;2.57;;
14100;SDS011;7127;49.372;8.166;2023-02-28T12:40:25;2.93;;;2.40;;
14100;SDS011;7127;49.372;8.166;2023-02-28T12:42:59;3.23;;;2.53;;
14100;SDS011;7127;49.372;8.166;2023-02-28T12:45:31;2.93;;;2.50;;
14100;SDS011;7127;49.372;8.166;2023-02-28T12:48:07;3.10;;;2.80;;
14100;SDS011;7127;49.372;8.166;2023-02-28T12:50:38;4.17;;;2.93;;
14100;SDS011;7127;49.372;8.166;2023-02-28T12:53:08;4.20;;;3.20;;
14100;SDS011;7127;49.372;8.166;2023-02-28T12:55:43;3.43;;;3.03;;
14100;SDS011;7127;49.372;8.166;2023-02-28T12:58:17;4.80;;;3.63;;
14100;SDS011;7127;49.372;8.166;2023-02-28T13:01:03;3.57;;;3.27;;
14100;SDS011;7127;49.372;8.166;2023-02-28T13:07:03;2.93;;;2.50;;
14100;SDS011;7127;49.372;8.166;2023-02-28T13:10:06;2.90;;;2.60;;
14100;SDS011;7127;49.372;8.166;2023-02-28T13:12:36;2.93;;;2.63;;
14100;SDS011;7127;49.372;8.166;2023-02-28T13:15:16;4.07;;;2.63;;
14100;SDS011;7127;49.372;8.166;2023-02-28T13:17:48;3.33;;;2.90;;
14100;SDS011;7127;49.372;8.166;2023-02-28T13:20:18;3.80;;;3.23;;
14100;SDS011;7127;49.372;8.166;2023-02-28T13:22:47;3.90;;;3.13;;
14100;SDS011;7127;49.372;8.166;2023-02-28T13:31:32;2.90;;;2.60;;
14100;SDS011;7127;49.372;8.166;2023-02-28T13:34:15;3.20;;;2.80;;
14100;SDS011;7127;49.372;8.166;2023-02-28T13:36:42;3.20;;;2.90;;
14100;SDS011;7127;49.372;8.166;2023-02-28T13:42:23;3.60;;;2.87;;
14100;SDS011;7127;49.372;8.166;2023-02-28T13:47:52;5.00;;;3.27;;
14100;SDS011;7127;49.372;8.166;2023-02-28T13:50:23;3.10;;;2.77;;
14100;SDS011;7127;49.372;8.166;2023-02-28T13:52:57;3.30;;;3.00;;
14100;SDS011;7127;49.372;8.166;2023-02-28T13:55:42;3.20;;;2.90;;
14100;SDS011;7127;49.372;8.166;2023-02-28T13:58:20;2.90;;;2.60;;
14100;SDS011;7127;49.372;8.166;2023-02-28T14:01:08;4.03;;;3.20;;
14100;SDS011;7127;49.372;8.166;2023-02-28T14:03:51;3.63;;;3.00;;
14100;SDS011;7127;49.372;8.166;2023-02-28T14:06:28;3.50;;;3.20;;
14100;SDS011;7127;49.372;8.166;2023-02-28T14:08:58;3.73;;;2.90;;
14100;SDS011;7127;49.372;8.166;2023-02-28T14:11:30;3.70;;;3.27;;
14100;SDS011;7127;49.372;8.166;2023-02-28T14:13:59;3.00;;;2.67;;
14100;SDS011;7127;49.372;8.166;2023-02-28T14:16:27;3.40;;;3.07;;
14100;SDS011;7127;49.372;8.166;2023-02-28T14:19:12;4.50;;;3.40;;
14100;SDS011;7127;49.372;8.166;2023-02-28T14:21:45;3.67;;;3.00;;
14100;SDS011;7127;49.372;8.166;2023-02-28T14:24:28;2.97;;;2.70;;
14100;SDS011;7127;49.372;8.166;2023-02-28T14:27:16;4.40;;;3.67;;
14100;SDS011;7127;49.372;8.166;2023-02-28T14:29:59;4.67;;;3.17;;
14100;SDS011;7127;49.372;8.166;2023-02-28T14:32:43;3.97;;;3.50;;
14100;SDS011;7127;49.372;8.166;2023-02-28T14:35:20;3.47;;;3.17;;
14100;SDS011;7127;49.372;8.166;2023-02-28T14:38:02;3.90;;;3.37;;
14100;SDS011;7127;49.372;8.166;2023-02-28T14:40:32;3.70;;;3.30;;
14100;SDS011;7127;49.372;8.166;2023-02-28T14:43:01;3.60;;;3.30;;
14100;SDS011;7127;49.372;8.166;2023-02-28T14:45:31;3.80;;;3.20;;
14100;SDS011;7127;49.372;8.166;2023-02-28T14:47:59;3.97;;;3.33;;
14100;SDS011;7127;49.372;8.166;2023-02-28T14:50:29;4.20;;;3.80;;
14100;SDS011;7127;49.372;8.166;2023-02-28T14:52:57;3.50;;;3.20;;
14100;SDS011;7127;49.372;8.166;2023-02-28T14:55:26;4.10;;;3.70;;
14100;SDS011;7127;49.372;8.166;2023-02-28T14:57:55;3.43;;;3.13;;
14100;SDS011;7127;49.372;8.166;2023-02-28T15:00:25;4.47;;;3.50;;
14100;SDS011;7127;49.372;8.166;2023-02-28T15:02:52;3.40;;;3.10;;
14100;SDS011;7127;49.372;8.166;2023-02-28T15:05:23;3.30;;;3.00;;
14100;SDS011;7127;49.372;8.166;2023-02-28T15:08:10;3.77;;;3.40;;
14100;SDS011;7127;49.372;8.166;2023-02-28T15:10:41;3.70;;;3.30;;
14100;SDS011;7127;49.372;8.166;2023-02-28T15:13:11;4.77;;;3.50;;
14100;SDS011;7127;49.372;8.166;2023-02-28T15:15:42;4.07;;;3.40;;
14100;SDS011;7127;49.372;8.166;2023-02-28T15:18:14;3.23;;;2.93;;
14100;SDS011;7127;49.372;8.166;2023-02-28T15:20:49;3.43;;;3.13;;
14100;SDS011;7127;49.372;8.166;2023-02-28T15:23:19;4.70;;;3.23;;
14100;SDS011;7127;49.372;8.166;2023-02-28T15:25:48;3.30;;;3.00;;
14100;SDS011;7127;49.372;8.166;2023-02-28T15:28:19;3.17;;;2.63;;
14100;SDS011;7127;49.372;8.166;2023-02-28T15:30:51;3.20;;;2.90;;
14100;SDS011;7127;49.372;8.166;2023-02-28T15:33:20;3.50;;;3.13;;
14100;SDS011;7127;49.372;8.166;2023-02-28T15:35:50;3.17;;;2.87;;
14100;SDS011;7127;49.372;8.166;2023-02-28T15:38:22;3.30;;;3.00;;
14100;SDS011;7127;49.372;8.166;2023-02-28T15:40:50;3.93;;;3.40;;
14100;SDS011;7127;49.372;8.166;2023-02-28T15:43:25;3.93;;;3.20;;
14100;SDS011;7127;49.372;8.166;2023-02-28T15:45:54;3.10;;;2.80;;
14100;SDS011;7127;49.372;8.166;2023-02-28T15:48:24;3.10;;;2.80;;